createdAt,value
2022-08-03T00:00:56.645Z,98465.89
2022-08-03T00:02:05.783Z,98467.45
2022-08-03T00:03:16.776Z,98465.60
2022-08-03T00:04:34.102Z,98468.53
2022-08-03T00:06:04.120Z,98467.88
2022-08-03T00:07:12.514Z,98467.05
2022-08-03T00:08:20.758Z,98467.77
2022-08-03T00:09:35.665Z,98468.72
2022-08-03T00:10:44.890Z,98468.69
2022-08-03T00:11:56.113Z,98462.54
2022-08-03T00:13:04.223Z,98462.51
2022-08-03T00:14:13.857Z,98463.80
2022-08-03T00:15:22.813Z,98464.33
2022-08-03T00:16:34.594Z,98460.86
2022-08-03T00:17:52.769Z,98458.34
2022-08-03T00:19:03.097Z,98463.30
2022-08-03T00:20:14.393Z,98463.99
2022-08-03T00:21:24.885Z,98461.86
2022-08-03T00:22:32.696Z,98460.85
2022-08-03T00:23:51.527Z,98463.36
2022-08-03T00:25:03.726Z,98462.33
2022-08-03T00:26:16.907Z,98461.31
2022-08-03T00:27:33.816Z,98464.89
2022-08-03T00:28:45.686Z,98467.06
2022-08-03T00:29:59.890Z,98465.45
2022-08-03T00:31:13.739Z,98466.86
2022-08-03T00:32:24.937Z,98465.98
2022-08-03T00:33:58.056Z,98462.60
2022-08-03T00:35:08.346Z,98461.80
2022-08-03T00:36:20.415Z,98463.15
2022-08-03T00:37:40.822Z,98463.67
2022-08-03T00:38:53.165Z,98458.42
2022-08-03T00:40:05.481Z,98457.04
2022-08-03T00:41:15.727Z,98458.27
2022-08-03T00:42:24.773Z,98457.35
2022-08-03T00:43:37.218Z,98459.21
2022-08-03T00:44:47.137Z,98452.73
2022-08-03T00:45:57.553Z,98454.70
2022-08-03T00:47:06.151Z,98456.07
2022-08-03T00:48:19.751Z,98456.56
2022-08-03T00:49:45.471Z,98458.30
2022-08-03T00:50:55.327Z,98456.67
2022-08-03T00:52:07.795Z,98456.57
2022-08-03T00:53:18.217Z,98455.75
2022-08-03T00:54:28.314Z,98454.48
2022-08-03T00:55:37.948Z,98453.11
2022-08-03T00:57:00.108Z,98450.31
2022-08-03T00:58:12.682Z,98450.41
2022-08-03T00:59:22.216Z,98454.30
2022-08-03T01:00:35.016Z,98451.56
2022-08-03T01:01:43.386Z,98452.86
2022-08-03T01:02:54.409Z,98453.27
2022-08-03T01:04:02.852Z,98454.45
2022-08-03T01:05:12.512Z,98455.52
2022-08-03T01:06:26.266Z,98459.27
2022-08-03T01:08:00.611Z,98461.36
2022-08-03T01:09:34.454Z,98463.33
2022-08-03T01:11:07.397Z,98460.47
2022-08-03T01:12:52.659Z,98460.94
2022-08-03T01:14:18.921Z,98462.79
2022-08-03T01:15:38.992Z,98460.82
2022-08-03T01:16:51.158Z,98463.89
2022-08-03T01:18:06.928Z,98464.48
2022-08-03T01:19:28.294Z,98466.63
2022-08-03T01:20:38.665Z,98468.18
2022-08-03T01:22:09.181Z,98463.85
2022-08-03T01:23:41.387Z,98466.40
2022-08-03T01:24:59.061Z,98463.48
2022-08-03T01:26:21.225Z,98465.19
2022-08-03T01:27:58.463Z,98467.63
2022-08-03T01:29:26.842Z,98467.20
2022-08-03T01:30:36.068Z,98470.48
2022-08-03T01:32:58.489Z,98470.80
2022-08-03T01:33:39.724Z,98471.89
2022-08-03T01:35:04.693Z,98474.81
2022-08-03T01:36:16.895Z,98474.29
2022-08-03T01:37:34.698Z,98472.95
2022-08-03T01:39:02.132Z,98479.31
2022-08-03T01:40:15.595Z,98484.54
2022-08-03T01:41:27.390Z,98486.38
2022-08-03T01:42:35.582Z,98484.36
2022-08-03T01:44:26.609Z,98485.72
2022-08-03T01:45:16.613Z,98486.30
2022-08-03T01:46:25.170Z,98489.15
2022-08-03T01:47:33.501Z,98490.78
2022-08-03T01:48:45.043Z,98491.39
2022-08-03T01:49:55.241Z,98489.73
2022-08-03T01:51:05.760Z,98495.46
2022-08-03T01:52:15.846Z,98493.83
2022-08-03T01:53:25.310Z,98496.63
2022-08-03T01:54:37.593Z,98497.98
2022-08-03T01:55:48.250Z,98497.58
2022-08-03T01:56:59.256Z,98497.84
2022-08-03T01:58:10.401Z,98501.77
2022-08-03T01:59:18.486Z,98498.46
2022-08-03T02:00:26.973Z,98498.13
2022-08-03T02:02:25.248Z,98499.66
2022-08-03T02:03:07.455Z,98499.27
2022-08-03T02:04:17.269Z,98502.55
2022-08-03T02:05:28.633Z,98503.91
2022-08-03T02:06:59.885Z,98502.79
2022-08-03T02:08:08.668Z,98503.64
2022-08-03T02:09:17.854Z,98503.80
2022-08-03T02:10:34.725Z,98503.16
2022-08-03T02:11:46.345Z,98504.33
2022-08-03T02:12:55.837Z,98506.92
2022-08-03T02:14:06.502Z,98507.69
2022-08-03T02:15:15.127Z,98507.30
2022-08-03T02:16:25.123Z,98508.55
2022-08-03T02:17:39.070Z,98509.80
2022-08-03T02:18:54.665Z,98508.80
2022-08-03T02:20:05.776Z,98510.55
2022-08-03T02:21:55.875Z,98514.59
2022-08-03T02:22:43.839Z,98511.80
2022-08-03T02:23:55.976Z,98516.55
2022-08-03T02:25:05.523Z,98520.41
2022-08-03T02:26:17.780Z,98525.55
2022-08-03T02:27:28.715Z,98524.33
2022-08-03T02:28:42.812Z,98526.91
2022-08-03T02:29:53.959Z,98526.80
2022-08-03T02:31:06.350Z,98522.55
2022-08-03T02:32:19.954Z,98524.18
2022-08-03T02:33:31.017Z,98529.77
2022-08-03T02:34:42.054Z,98531.89
2022-08-03T02:35:52.701Z,98533.94
2022-08-03T02:37:02.380Z,98534.14
2022-08-03T02:38:10.930Z,98536.91
2022-08-03T02:39:22.652Z,98538.42
2022-08-03T02:40:33.806Z,98542.02
2022-08-03T02:42:04.633Z,98541.38
2022-08-03T02:43:14.258Z,98539.61
2022-08-03T02:44:30.273Z,98541.36
2022-08-03T02:45:41.512Z,98542.14
2022-08-03T02:46:59.991Z,98540.84
2022-08-03T02:48:09.456Z,98539.88
2022-08-03T02:49:49.500Z,98539.52
2022-08-03T02:50:51.058Z,98542.23
2022-08-03T02:52:02.149Z,98545.57
2022-08-03T02:53:11.210Z,98542.23
2022-08-03T02:54:22.760Z,98543.78
2022-08-03T02:55:31.043Z,98546.94
2022-08-03T02:56:41.777Z,98545.63
2022-08-03T02:57:50.225Z,98546.09
2022-08-03T02:59:01.600Z,98544.40
2022-08-03T03:00:11.237Z,98544.58
2022-08-03T03:01:21.275Z,98544.59
2022-08-03T03:02:32.430Z,98544.88
2022-08-03T03:03:44.878Z,98548.20
2022-08-03T03:05:51.765Z,98552.29
2022-08-03T03:06:27.145Z,98549.48
2022-08-03T03:07:52.016Z,98548.13
2022-08-03T03:09:05.026Z,98546.13
2022-08-03T03:10:16.319Z,98547.44
2022-08-03T03:11:25.897Z,98547.84
2022-08-03T03:12:34.723Z,98547.17
2022-08-03T03:13:44.866Z,98550.93
2022-08-03T03:14:53.118Z,98553.20
2022-08-03T03:16:06.480Z,98552.66
2022-08-03T03:17:14.773Z,98550.73
2022-08-03T03:18:25.813Z,98545.77
2022-08-03T03:19:34.167Z,98544.84
2022-08-03T03:20:42.658Z,98546.77
2022-08-03T03:21:54.200Z,98550.41
2022-08-03T03:23:04.855Z,98548.59
2022-08-03T03:24:13.265Z,98552.73
2022-08-03T03:25:25.433Z,98550.63
2022-08-03T03:26:37.369Z,98550.75
2022-08-03T03:27:50.876Z,98549.36
2022-08-03T03:29:02.724Z,98547.89
2022-08-03T03:30:13.774Z,98548.55
2022-08-03T03:31:21.929Z,98546.11
2022-08-03T03:32:31.957Z,98546.67
2022-08-03T03:33:40.986Z,98550.73
2022-08-03T03:34:52.308Z,98550.31
2022-08-03T03:36:01.244Z,98546.34
2022-08-03T03:37:09.260Z,98547.98
2022-08-03T03:38:18.822Z,98549.18
2022-08-03T03:39:28.267Z,98547.77
2022-08-03T03:40:40.244Z,98549.29
2022-08-03T03:41:49.066Z,98550.70
2022-08-03T03:43:01.347Z,98550.87
2022-08-03T03:44:11.342Z,98548.66
2022-08-03T03:45:21.101Z,98550.42
2022-08-03T03:46:29.087Z,98548.77
2022-08-03T03:47:37.375Z,98552.79
2022-08-03T03:48:46.562Z,98549.25
2022-08-03T03:49:56.707Z,98551.73
2022-08-03T03:51:05.849Z,98553.38
2022-08-03T03:52:15.563Z,98553.92
2022-08-03T03:53:24.470Z,98556.95
2022-08-03T03:54:55.370Z,98555.56
2022-08-03T03:56:08.983Z,98557.00
2022-08-03T03:57:17.255Z,98556.17
2022-08-03T03:58:26.695Z,98558.04
2022-08-03T03:59:35.952Z,98559.73
2022-08-03T04:00:46.921Z,98560.73
2022-08-03T04:01:58.782Z,98563.80
2022-08-03T04:03:07.562Z,98566.65
2022-08-03T04:04:37.710Z,98568.02
2022-08-03T04:06:07.722Z,98570.27
2022-08-03T04:07:34.227Z,98574.00
2022-08-03T04:09:03.732Z,98580.16
2022-08-03T04:10:44.965Z,98580.11
2022-08-03T04:12:00.178Z,98582.07
2022-08-03T04:13:11.872Z,98582.12
2022-08-03T04:14:27.280Z,98581.13
2022-08-03T04:15:36.082Z,98581.44
2022-08-03T04:16:49.272Z,98578.45
2022-08-03T04:17:59.836Z,98576.73
2022-08-03T04:19:40.718Z,98578.09
2022-08-03T04:20:52.480Z,98580.33
2022-08-03T04:22:09.839Z,98586.77
2022-08-03T04:23:18.246Z,98586.55
2022-08-03T04:24:31.944Z,98589.02
2022-08-03T04:25:40.680Z,98590.16
2022-08-03T04:26:52.653Z,98593.36
2022-08-03T04:28:29.630Z,98593.23
2022-08-03T04:29:34.956Z,98593.45
2022-08-03T04:30:51.125Z,98596.08
2022-08-03T04:32:03.071Z,98599.60
2022-08-03T04:33:12.619Z,98601.46
2022-08-03T04:34:23.835Z,98605.31
2022-08-03T04:36:01.033Z,98606.86
2022-08-03T04:37:04.011Z,98602.92
2022-08-03T04:38:15.915Z,98606.40
2022-08-03T04:39:29.600Z,98610.09
2022-08-03T04:40:40.391Z,98611.35
2022-08-03T04:42:04.755Z,98613.98
2022-08-03T04:43:17.361Z,98613.09
2022-08-03T04:44:28.609Z,98609.84
2022-08-03T04:45:37.016Z,98611.87
2022-08-03T04:46:50.432Z,98607.56
2022-08-03T04:48:04.559Z,98605.41
2022-08-03T04:49:13.877Z,98607.95
2022-08-03T04:50:21.933Z,98608.54
2022-08-03T04:51:46.609Z,98611.62
2022-08-03T04:52:58.445Z,98610.46
2022-08-03T04:54:09.163Z,98610.13
2022-08-03T04:55:33.499Z,98612.11
2022-08-03T04:56:44.813Z,98610.61
2022-08-03T04:57:55.594Z,98611.48
2022-08-03T04:59:03.972Z,98610.77
2022-08-03T05:00:13.267Z,98608.29
2022-08-03T05:01:22.462Z,98607.16
2022-08-03T05:02:33.800Z,98605.63
2022-08-03T05:03:42.522Z,98611.33
2022-08-03T05:04:51.612Z,98612.91
2022-08-03T05:06:11.136Z,98612.52
2022-08-03T05:07:24.738Z,98615.44
2022-08-03T05:08:36.195Z,98618.60
2022-08-03T05:10:01.536Z,98620.02
2022-08-03T05:11:15.468Z,98619.45
2022-08-03T05:12:23.944Z,98618.79
2022-08-03T05:13:32.163Z,98621.91
2022-08-03T05:14:43.114Z,98624.94
2022-08-03T05:15:51.698Z,98624.15
2022-08-03T05:16:59.957Z,98623.57
2022-08-03T05:18:13.692Z,98627.90
2022-08-03T05:19:22.909Z,98627.66
2022-08-03T05:20:34.006Z,98631.66
2022-08-03T05:21:52.910Z,98633.14
2022-08-03T05:23:06.322Z,98634.06
2022-08-03T05:24:16.313Z,98633.44
2022-08-03T05:25:27.506Z,98634.79
2022-08-03T05:26:36.884Z,98635.70
2022-08-03T05:27:45.095Z,98636.96
2022-08-03T05:28:55.947Z,98636.27
2022-08-03T05:30:30.938Z,98633.20
2022-08-03T05:31:34.435Z,98633.17
2022-08-03T05:32:44.621Z,98632.34
2022-08-03T05:33:53.465Z,98632.11
2022-08-03T05:35:56.788Z,98631.55
2022-08-03T05:36:29.829Z,98632.80
2022-08-03T05:37:38.722Z,98633.81
2022-08-03T05:39:03.813Z,98637.52
2022-08-03T05:40:16.597Z,98638.53
2022-08-03T05:41:37.112Z,98637.65
2022-08-03T05:42:47.023Z,98639.73
2022-08-03T05:43:56.891Z,98638.75
2022-08-03T05:45:16.493Z,98637.70
2022-08-03T05:46:27.518Z,98640.05
2022-08-03T05:47:35.843Z,98640.22
2022-08-03T05:48:46.481Z,98638.98
2022-08-03T05:49:57.485Z,98638.65
2022-08-03T05:51:09.490Z,98638.28
2022-08-03T05:52:18.398Z,98639.55
2022-08-03T05:53:29.141Z,98640.77
2022-08-03T05:54:56.064Z,98644.05
2022-08-03T05:56:14.481Z,98642.63
2022-08-03T05:57:26.976Z,98641.29
2022-08-03T05:58:37.164Z,98640.80
2022-08-03T05:59:53.812Z,98640.08
2022-08-03T06:01:09.549Z,98640.27
2022-08-03T06:02:19.100Z,98637.00
2022-08-03T06:03:27.302Z,98639.44
2022-08-03T06:04:37.025Z,98642.06
2022-08-03T06:06:00.533Z,98638.73
2022-08-03T06:07:10.253Z,98637.92
2022-08-03T06:08:19.009Z,98637.33
2022-08-03T06:10:33.627Z,98641.24
2022-08-03T06:10:56.965Z,98639.06
2022-08-03T06:12:09.104Z,98639.80
2022-08-03T06:13:19.784Z,98640.57
2022-08-03T06:14:31.982Z,98637.94
2022-08-03T06:15:40.078Z,98635.27
2022-08-03T06:16:49.037Z,98633.98
2022-08-03T06:18:02.021Z,98633.52
2022-08-03T06:19:13.051Z,98630.98
2022-08-03T06:20:22.446Z,98631.54
2022-08-03T06:21:35.965Z,98629.69
2022-08-03T06:22:51.007Z,98633.70
2022-08-03T06:24:10.549Z,98636.52
2022-08-03T06:25:21.444Z,98634.11
2022-08-03T06:26:33.158Z,98633.90
2022-08-03T06:27:44.316Z,98636.02
2022-08-03T06:28:56.247Z,98635.50
2022-08-03T06:30:06.898Z,98637.94
2022-08-03T06:31:16.032Z,98636.85
2022-08-03T06:32:26.084Z,98636.40
2022-08-03T06:33:48.388Z,98636.82
2022-08-03T06:35:03.498Z,98635.94
2022-08-03T06:36:14.393Z,98637.04
2022-08-03T06:37:23.147Z,98637.56
2022-08-03T06:38:31.766Z,98638.59
2022-08-03T06:39:39.441Z,98642.27
2022-08-03T06:40:49.906Z,98646.16
2022-08-03T06:42:00.526Z,98646.55
2022-08-03T06:43:12.569Z,98644.05
2022-08-03T06:44:21.541Z,98642.53
2022-08-03T06:45:33.650Z,98639.15
2022-08-03T06:46:44.788Z,98635.81
2022-08-03T06:48:03.545Z,98630.77
2022-08-03T06:49:13.948Z,98627.23
2022-08-03T06:50:25.994Z,98621.83
2022-08-03T06:52:03.112Z,98618.34
2022-08-03T06:53:03.534Z,98621.09
2022-08-03T06:54:15.774Z,98618.20
2022-08-03T06:55:24.344Z,98621.95
2022-08-03T06:56:32.631Z,98624.48
2022-08-03T06:57:40.492Z,98623.41
2022-08-03T06:58:49.756Z,98621.46
2022-08-03T07:00:09.958Z,98625.65
2022-08-03T07:01:22.381Z,98622.14
2022-08-03T07:02:31.744Z,98620.37
2022-08-03T07:03:39.416Z,98618.33
2022-08-03T07:05:05.482Z,98612.34
2022-08-03T07:06:15.854Z,98610.79
2022-08-03T07:07:24.212Z,98616.42
2022-08-03T07:08:34.880Z,98617.80
2022-08-03T07:09:43.009Z,98615.80
2022-08-03T07:11:09.592Z,98615.64
2022-08-03T07:12:18.220Z,98615.42
2022-08-03T07:13:26.373Z,98622.34
2022-08-03T07:14:36.792Z,98621.48
2022-08-03T07:15:55.458Z,98624.96
2022-08-03T07:17:11.951Z,98626.13
2022-08-03T07:18:23.019Z,98625.08
2022-08-03T07:19:37.942Z,98624.16
2022-08-03T07:20:46.764Z,98625.73
2022-08-03T07:22:00.164Z,98628.06
2022-08-03T07:23:19.327Z,98624.51
2022-08-03T07:24:31.009Z,98624.70
2022-08-03T07:25:38.632Z,98625.67
2022-08-03T07:26:46.912Z,98626.52
2022-08-03T07:27:57.559Z,98626.70
2022-08-03T07:29:14.870Z,98624.00
2022-08-03T07:30:23.625Z,98622.45
2022-08-03T07:31:34.373Z,98621.17
2022-08-03T07:32:50.343Z,98620.91
2022-08-03T07:33:59.866Z,98616.43
2022-08-03T07:35:24.855Z,98613.92
2022-08-03T07:36:34.456Z,98613.95
2022-08-03T07:37:42.750Z,98613.11
2022-08-03T07:39:16.527Z,98612.41
2022-08-03T07:40:31.932Z,98607.05
2022-08-03T07:41:42.300Z,98602.98
2022-08-03T07:42:53.353Z,98600.13
2022-08-03T07:44:04.533Z,98596.30
2022-08-03T07:45:13.985Z,98593.83
2022-08-03T07:46:26.785Z,98593.68
2022-08-03T07:47:36.748Z,98594.11
2022-08-03T07:48:47.311Z,98592.38
2022-08-03T07:49:57.379Z,98594.58
2022-08-03T07:51:07.417Z,98595.40
2022-08-03T07:52:43.795Z,98592.98
2022-08-03T07:53:52.996Z,98592.17
2022-08-03T07:55:01.221Z,98594.98
2022-08-03T07:56:12.476Z,98591.13
2022-08-03T07:57:20.171Z,98590.23
2022-08-03T07:58:29.850Z,98590.71
2022-08-03T07:59:56.681Z,98593.09
2022-08-03T08:01:09.068Z,98592.39
2022-08-03T08:02:19.679Z,98592.77
2022-08-03T08:03:28.376Z,98594.56
2022-08-03T08:04:59.979Z,98596.20
2022-08-03T08:06:12.218Z,98598.83
2022-08-03T08:07:20.791Z,98601.64
2022-08-03T08:08:33.208Z,98600.66
2022-08-03T08:09:41.894Z,98599.09
2022-08-03T08:10:58.246Z,98596.98
2022-08-03T08:12:15.722Z,98590.64
2022-08-03T08:13:25.169Z,98592.44
2022-08-03T08:14:36.115Z,98585.47
2022-08-03T08:15:44.363Z,98588.91
2022-08-03T08:16:53.888Z,98586.50
2022-08-03T08:18:04.715Z,98587.27
2022-08-03T08:19:18.363Z,98584.95
2022-08-03T08:20:31.725Z,98581.45
2022-08-03T08:21:52.921Z,98584.23
2022-08-03T08:23:24.858Z,98582.41
2022-08-03T08:24:35.634Z,98581.60
2022-08-03T08:25:45.175Z,98581.08
2022-08-03T08:26:56.264Z,98582.13
2022-08-03T08:28:30.842Z,98581.77
2022-08-03T08:29:37.371Z,98583.58
2022-08-03T08:30:57.118Z,98581.84
2022-08-03T08:32:07.372Z,98580.16
2022-08-03T08:33:22.614Z,98580.48
2022-08-03T08:34:34.283Z,98575.33
2022-08-03T08:35:43.093Z,98576.52
2022-08-03T08:36:52.234Z,98580.26
2022-08-03T08:38:05.884Z,98579.64
2022-08-03T08:39:17.617Z,98582.77
2022-08-03T08:40:27.916Z,98580.56
2022-08-03T08:41:36.966Z,98581.33
2022-08-03T08:42:57.941Z,98580.69
2022-08-03T08:44:13.366Z,98580.02
2022-08-03T08:45:21.215Z,98580.45
2022-08-03T08:46:28.908Z,98581.84
2022-08-03T08:47:51.034Z,98580.83
2022-08-03T08:49:04.920Z,98578.73
2022-08-03T08:50:27.963Z,98577.05
2022-08-03T08:51:59.715Z,98576.71
2022-08-03T08:53:11.597Z,98577.98
2022-08-03T08:54:26.295Z,98584.34
2022-08-03T08:55:58.268Z,98582.65
2022-08-03T08:57:21.287Z,98580.02
2022-08-03T08:58:40.758Z,98576.33
2022-08-03T08:59:51.549Z,98576.05
2022-08-03T09:01:03.705Z,98571.13
2022-08-03T09:02:14.432Z,98571.50
2022-08-03T09:03:22.625Z,98570.67
2022-08-03T09:04:42.492Z,98573.09
2022-08-03T09:05:57.272Z,98575.84
2022-08-03T09:07:19.648Z,98572.77
2022-08-03T09:08:29.950Z,98572.67
2022-08-03T09:10:11.745Z,98568.59
2022-08-03T09:11:05.916Z,98569.70
2022-08-03T09:12:39.201Z,98565.89
2022-08-03T09:13:45.344Z,98567.19
2022-08-03T09:15:14.701Z,98569.35
2022-08-03T09:16:23.099Z,98567.48
2022-08-03T09:17:46.413Z,98569.52
2022-08-03T09:18:58.777Z,98570.83
2022-08-03T09:20:11.559Z,98566.77
2022-08-03T09:21:35.133Z,98565.62
2022-08-03T09:23:26.281Z,98562.48
2022-08-03T09:24:41.628Z,98563.41
2022-08-03T09:25:52.188Z,98565.65
2022-08-03T09:27:03.614Z,98568.27
2022-08-03T09:28:52.558Z,98569.85
2022-08-03T09:29:54.506Z,98573.83
2022-08-03T09:31:02.886Z,98575.98
2022-08-03T09:32:14.930Z,98574.89
2022-08-03T09:33:23.140Z,98572.72
2022-08-03T09:34:32.859Z,98573.41
2022-08-03T09:35:53.914Z,98569.48
2022-08-03T09:37:05.046Z,98569.15
2022-08-03T09:38:18.076Z,98571.05
2022-08-03T09:39:40.548Z,98570.25
2022-08-03T09:40:59.891Z,98570.96
2022-08-03T09:42:14.973Z,98573.59
2022-08-03T09:43:23.591Z,98572.57
2022-08-03T09:44:46.604Z,98573.73
2022-08-03T09:45:55.385Z,98577.14
2022-08-03T09:47:07.601Z,98578.20
2022-08-03T09:48:27.957Z,98578.02
2022-08-03T09:49:37.355Z,98570.66
2022-08-03T09:51:12.920Z,98569.65
2022-08-03T09:52:27.387Z,98565.58
2022-08-03T09:53:57.077Z,98563.92
2022-08-03T09:56:30.772Z,98563.05
2022-08-03T09:56:48.836Z,98564.73
2022-08-03T09:58:11.522Z,98564.95
2022-08-03T09:59:30.519Z,98561.91
2022-08-03T10:00:59.796Z,98558.47
2022-08-03T10:02:09.173Z,98556.61
2022-08-03T10:03:18.050Z,98552.34
2022-08-03T10:04:27.117Z,98554.65
2022-08-03T10:05:38.000Z,98556.07
2022-08-03T10:07:04.364Z,98557.91
2022-08-03T10:08:18.291Z,98563.31
2022-08-03T10:09:27.344Z,98564.58
2022-08-03T10:10:45.346Z,98567.34
2022-08-03T10:11:53.209Z,98570.20
2022-08-03T10:13:02.129Z,98570.06
2022-08-03T10:14:20.716Z,98570.80
2022-08-03T10:16:22.719Z,98571.20
2022-08-03T10:16:58.272Z,98568.66
2022-08-03T10:18:08.813Z,98569.88
2022-08-03T10:19:17.690Z,98564.39
2022-08-03T10:20:27.132Z,98564.58
2022-08-03T10:21:39.685Z,98568.33
2022-08-03T10:22:48.219Z,98571.27
2022-08-03T10:23:58.070Z,98567.38
2022-08-03T10:25:11.779Z,98567.47
2022-08-03T10:26:24.619Z,98567.61
2022-08-03T10:27:37.954Z,98568.19
2022-08-03T10:28:50.274Z,98569.35
2022-08-03T10:30:02.273Z,98570.98
2022-08-03T10:31:13.411Z,98569.17
2022-08-03T10:33:01.980Z,98568.15
2022-08-03T10:34:21.495Z,98563.13
2022-08-03T10:35:29.506Z,98556.27
2022-08-03T10:36:40.349Z,98555.14
2022-08-03T10:37:56.730Z,98555.67
2022-08-03T10:39:16.247Z,98558.66
2022-08-03T10:42:02.832Z,98553.75
2022-08-03T10:43:15.110Z,98556.27
2022-08-03T10:44:26.444Z,98558.52
2022-08-03T10:45:38.637Z,98554.17
2022-08-03T10:46:48.419Z,98551.89
2022-08-03T10:47:58.673Z,98553.77
2022-08-03T10:49:08.401Z,98551.20
2022-08-03T10:50:16.768Z,98547.33
2022-08-03T10:51:26.543Z,98544.81
2022-08-03T10:52:41.277Z,98543.92
2022-08-03T10:53:55.319Z,98540.23
2022-08-03T10:55:25.623Z,98535.73
2022-08-03T10:56:56.528Z,98536.83
2022-08-03T10:58:11.165Z,98529.67
2022-08-03T10:59:27.377Z,98526.33
2022-08-03T11:00:54.110Z,98524.85
2022-08-03T11:02:02.830Z,98524.65
2022-08-03T11:03:17.855Z,98525.32
2022-08-03T11:04:28.225Z,98519.16
2022-08-03T11:05:38.909Z,98518.14
2022-08-03T11:06:48.506Z,98518.42
2022-08-03T11:08:26.161Z,98513.16
2022-08-03T11:09:43.978Z,98510.33
2022-08-03T11:10:52.764Z,98506.21
2022-08-03T11:12:04.220Z,98502.77
2022-08-03T11:13:14.942Z,98502.30
2022-08-03T11:14:27.968Z,98500.00
2022-08-03T11:15:37.751Z,98498.50
2022-08-03T11:17:00.776Z,98498.27
2022-08-03T11:18:15.357Z,98497.04
2022-08-03T11:19:30.023Z,98500.17
2022-08-03T11:20:51.723Z,98499.67
2022-08-03T11:21:59.945Z,98501.23
2022-08-03T11:23:08.602Z,98504.45
2022-08-03T11:24:47.902Z,98503.30
2022-08-03T11:26:19.296Z,98504.06
2022-08-03T11:27:32.020Z,98501.55
2022-08-03T11:28:41.580Z,98502.05
2022-08-03T11:30:10.105Z,98499.84
2022-08-03T11:33:00.499Z,98493.14
2022-08-03T11:34:16.347Z,98487.40
2022-08-03T11:35:36.862Z,98488.20
2022-08-03T11:37:23.191Z,98491.45
2022-08-03T11:38:34.810Z,98488.89
2022-08-03T11:39:47.352Z,98490.27
2022-08-03T11:40:56.018Z,98492.80
2022-08-03T11:42:28.978Z,98492.58
2022-08-03T11:43:43.683Z,98493.35
2022-08-03T11:44:57.925Z,98489.73
2022-08-03T11:46:29.782Z,98491.20
2022-08-03T11:47:51.035Z,98488.25
2022-08-03T11:49:10.926Z,98482.92
2022-08-03T11:50:24.282Z,98482.09
2022-08-03T11:51:35.965Z,98479.88
2022-08-03T11:52:44.476Z,98476.98
2022-08-03T11:54:00.547Z,98476.79
2022-08-03T11:55:12.970Z,98474.32
2022-08-03T11:56:22.007Z,98474.63
2022-08-03T11:59:17.516Z,98475.52
2022-08-03T11:59:20.354Z,98475.95
2022-08-03T12:00:31.387Z,98475.40
2022-08-03T12:01:40.417Z,98479.70
2022-08-03T12:02:59.039Z,98480.44
2022-08-03T12:04:08.525Z,98479.05
2022-08-03T12:05:18.200Z,98481.98
2022-08-03T12:06:27.950Z,98483.34
2022-08-03T12:08:03.032Z,98484.71
2022-08-03T12:09:21.312Z,98486.79
2022-08-03T12:10:31.136Z,98488.63
2022-08-03T12:11:39.695Z,98492.64
2022-08-03T12:14:44.395Z,98494.52
2022-08-03T12:14:49.277Z,98499.59
2022-08-03T12:16:04.691Z,98501.27
2022-08-03T12:17:15.493Z,98500.77
2022-08-03T12:18:24.336Z,98503.52
2022-08-03T12:19:45.731Z,98500.80
2022-08-03T12:20:55.290Z,98502.56
2022-08-03T12:22:03.554Z,98502.14
2022-08-03T12:23:11.591Z,98503.42
2022-08-03T12:24:21.323Z,98503.61
2022-08-03T12:25:39.771Z,98502.73
2022-08-03T12:26:58.289Z,98504.18
2022-08-03T12:28:36.250Z,98501.16
2022-08-03T12:29:58.187Z,98500.42
2022-08-03T12:31:15.002Z,98497.67
2022-08-03T12:32:27.632Z,98497.06
2022-08-03T12:33:58.715Z,98494.83
2022-08-03T12:35:08.974Z,98493.40
2022-08-03T12:36:18.994Z,98495.73
2022-08-03T12:37:27.001Z,98496.48
2022-08-03T12:38:36.287Z,98497.64
2022-08-03T12:40:00.535Z,98499.39
2022-08-03T12:41:18.276Z,98497.55
2022-08-03T12:42:47.994Z,98498.66
2022-08-03T12:43:56.824Z,98499.48
2022-08-03T12:45:25.839Z,98500.30
2022-08-03T12:46:41.680Z,98503.88
2022-08-03T12:48:00.677Z,98509.23
2022-08-03T12:49:13.703Z,98511.84
2022-08-03T12:50:39.177Z,98511.64
2022-08-03T12:51:47.385Z,98511.52
2022-08-03T12:52:57.782Z,98508.13
2022-08-03T12:54:06.814Z,98509.65
2022-08-03T12:55:23.585Z,98510.83
2022-08-03T12:56:34.297Z,98513.30
2022-08-03T12:57:44.765Z,98515.23
2022-08-03T12:58:55.647Z,98516.13
2022-08-03T13:00:28.807Z,98519.83
2022-08-03T13:01:55.322Z,98521.91
2022-08-03T13:03:39.311Z,98523.89
2022-08-03T13:04:38.403Z,98522.86
2022-08-03T13:05:46.626Z,98524.55
2022-08-03T13:07:06.784Z,98521.96
2022-08-03T13:08:27.735Z,98519.84
2022-08-03T13:09:54.791Z,98520.66
2022-08-03T13:11:19.185Z,98524.02
2022-08-03T13:12:28.552Z,98522.75
2022-08-03T13:13:43.041Z,98523.97
2022-08-03T13:15:00.751Z,98524.14
2022-08-03T13:16:13.556Z,98529.16
2022-08-03T13:17:25.600Z,98528.43
2022-08-03T13:18:33.874Z,98528.27
2022-08-03T13:19:43.157Z,98529.14
2022-08-03T13:20:54.659Z,98528.93
2022-08-03T13:22:05.048Z,98529.80
2022-08-03T13:23:22.055Z,98529.59
2022-08-03T13:24:32.374Z,98529.64
2022-08-03T13:25:41.048Z,98530.52
2022-08-03T13:28:02.367Z,98531.09
2022-08-03T13:28:39.419Z,98529.47
2022-08-03T13:29:47.613Z,98530.17
2022-08-03T13:30:57.948Z,98533.73
2022-08-03T13:32:06.968Z,98533.54
2022-08-03T13:33:18.092Z,98535.16
2022-08-03T13:34:29.144Z,98533.95
2022-08-03T13:35:38.864Z,98534.80
2022-08-03T13:37:08.083Z,98535.44
2022-08-03T13:38:17.837Z,98537.70
2022-08-03T13:39:32.558Z,98537.94
2022-08-03T13:40:46.037Z,98534.82
2022-08-03T13:41:55.536Z,98535.27
2022-08-03T13:43:04.811Z,98534.06
2022-08-03T13:44:28.264Z,98539.70
2022-08-03T13:45:38.043Z,98540.23
2022-08-03T13:46:49.162Z,98536.42
2022-08-03T13:47:58.472Z,98539.91
2022-08-03T13:49:09.184Z,98542.10
2022-08-03T13:50:18.636Z,98543.21
2022-08-03T13:51:27.265Z,98543.30
2022-08-03T13:52:37.845Z,98547.77
2022-08-03T13:53:46.198Z,98551.73
2022-08-03T13:54:58.594Z,98546.73
2022-08-03T13:56:08.641Z,98548.34
2022-08-03T13:58:02.972Z,98553.22
2022-08-03T13:58:48.209Z,98548.14
2022-08-03T13:59:56.575Z,98546.93
2022-08-03T14:01:05.158Z,98550.76
2022-08-03T14:02:16.197Z,98549.90
2022-08-03T14:03:27.399Z,98554.44
2022-08-03T14:04:38.764Z,98553.38
2022-08-03T14:05:47.236Z,98550.02
2022-08-03T14:06:58.152Z,98554.23
2022-08-03T14:08:08.575Z,98553.23
2022-08-03T14:09:19.699Z,98547.82
2022-08-03T14:10:29.432Z,98547.71
2022-08-03T14:12:07.319Z,98544.47
2022-08-03T14:13:07.781Z,98545.89
2022-08-03T14:14:18.733Z,98546.13
2022-08-03T14:15:28.077Z,98542.91
2022-08-03T14:16:38.027Z,98542.02
2022-08-03T14:17:49.651Z,98545.76
2022-08-03T14:18:59.250Z,98547.17
2022-08-03T14:20:38.610Z,98548.86
2022-08-03T14:22:01.819Z,98548.24
2022-08-03T14:23:19.322Z,98545.31
2022-08-03T14:24:30.490Z,98545.10
2022-08-03T14:25:44.487Z,98544.73
2022-08-03T14:27:07.132Z,98541.45
2022-08-03T14:28:19.288Z,98540.67
2022-08-03T14:29:28.623Z,98542.35
2022-08-03T14:30:36.603Z,98538.42
2022-08-03T14:32:12.024Z,98539.69
2022-08-03T14:33:15.889Z,98538.28
2022-08-03T14:34:26.372Z,98542.24
2022-08-03T14:35:36.102Z,98543.86
2022-08-03T14:36:44.381Z,98546.72
2022-08-03T14:37:53.549Z,98547.27
2022-08-03T14:39:04.951Z,98550.41